createdAt,value
2023-05-14T00:00:04.672Z,7.72
2023-05-14T00:02:31.388Z,7.66
2023-05-14T00:04:58.020Z,7.62
2023-05-14T00:07:30.819Z,7.55
2023-05-14T00:09:58.880Z,7.54
2023-05-14T00:12:26.689Z,7.58
2023-05-14T00:14:54.217Z,7.52
2023-05-14T00:17:21.010Z,7.52
2023-05-14T00:19:47.936Z,7.50
2023-05-14T00:22:14.635Z,7.45
2023-05-14T00:24:41.389Z,7.43
2023-05-14T00:27:08.052Z,7.43
2023-05-14T00:29:35.117Z,7.44
2023-05-14T00:32:03.876Z,7.38
2023-05-14T00:34:30.523Z,7.32
2023-05-14T00:36:57.183Z,7.32
2023-05-14T00:39:23.783Z,7.23
2023-05-14T00:41:50.508Z,7.21
2023-05-14T00:44:17.180Z,7.23
2023-05-14T00:46:43.922Z,7.16
2023-05-14T00:49:10.975Z,7.15
2023-05-14T00:51:38.145Z,7.14
2023-05-14T00:54:05.082Z,7.14
2023-05-14T00:56:31.938Z,7.08
2023-05-14T00:58:58.798Z,7.06
2023-05-14T01:01:28.603Z,7.01
2023-05-14T01:03:57.986Z,7.03
2023-05-14T01:06:37.100Z,6.96
2023-05-14T01:09:25.406Z,6.99
2023-05-14T01:12:06.698Z,6.91
2023-05-14T01:14:55.652Z,6.90
2023-05-14T01:17:24.711Z,6.75
2023-05-14T01:19:52.345Z,6.79
2023-05-14T01:22:18.971Z,6.85
2023-05-14T01:24:45.733Z,6.69
2023-05-14T01:27:29.805Z,6.70
2023-05-14T01:30:09.916Z,6.63
2023-05-14T01:32:39.158Z,6.64
2023-05-14T01:35:08.093Z,6.69
2023-05-14T01:37:35.935Z,6.65
2023-05-14T01:40:03.598Z,6.68
2023-05-14T01:42:30.467Z,6.68
2023-05-14T01:44:57.576Z,6.58
2023-05-14T01:47:24.262Z,6.48
2023-05-14T01:49:51.071Z,6.41
2023-05-14T01:52:21.036Z,6.50
2023-05-14T01:54:50.330Z,6.51
2023-05-14T01:57:16.981Z,6.53
2023-05-14T01:59:43.780Z,6.52
2023-05-14T02:02:10.462Z,6.43
2023-05-14T02:04:37.088Z,6.46
2023-05-14T02:07:03.746Z,6.39
2023-05-14T02:09:30.813Z,6.32
2023-05-14T02:11:57.590Z,6.35
2023-05-14T02:14:24.236Z,6.38
2023-05-14T02:16:51.400Z,6.39
2023-05-14T02:19:18.272Z,6.42
2023-05-14T02:21:44.891Z,6.39
2023-05-14T02:24:11.511Z,6.36
2023-05-14T02:26:38.206Z,6.33
2023-05-14T02:29:04.948Z,6.30
2023-05-14T02:31:31.651Z,6.25
2023-05-14T02:33:58.257Z,6.28
2023-05-14T02:36:24.941Z,6.18
2023-05-14T02:38:51.573Z,6.20
2023-05-14T02:41:18.309Z,6.25
2023-05-14T02:43:44.990Z,6.31
2023-05-14T02:46:11.626Z,6.25
2023-05-14T02:48:38.213Z,6.25
2023-05-14T02:51:04.878Z,6.23
2023-05-14T02:53:31.505Z,6.22
2023-05-14T02:55:58.179Z,6.13
2023-05-14T02:58:25.472Z,6.16
2023-05-14T03:00:55.402Z,6.17
2023-05-14T03:03:22.567Z,6.14
2023-05-14T03:05:49.752Z,6.10
2023-05-14T03:08:16.391Z,6.10
2023-05-14T03:10:43.047Z,6.07
2023-05-14T03:13:09.684Z,6.02
2023-05-14T03:15:36.344Z,5.91
2023-05-14T03:18:03.029Z,5.99
2023-05-14T03:20:29.713Z,5.89
2023-05-14T03:22:56.746Z,5.90
2023-05-14T03:25:23.479Z,5.94
2023-05-14T03:27:50.158Z,5.90
2023-05-14T03:30:16.811Z,5.87
2023-05-14T03:32:43.817Z,5.90
2023-05-14T03:35:10.641Z,5.96
2023-05-14T03:37:37.366Z,5.99
2023-05-14T03:40:04.473Z,5.92
2023-05-14T03:42:31.103Z,5.95
2023-05-14T03:44:57.773Z,5.92
2023-05-14T03:47:24.478Z,5.88
2023-05-14T03:49:52.365Z,5.85
2023-05-14T03:52:18.971Z,5.83
2023-05-14T03:54:45.654Z,5.78
2023-05-14T03:57:12.227Z,5.76
2023-05-14T03:59:38.959Z,5.72
2023-05-14T04:02:05.604Z,5.71
2023-05-14T04:04:32.361Z,5.74
2023-05-14T04:06:59.012Z,5.78
2023-05-14T04:09:25.752Z,5.79
2023-05-14T04:11:52.365Z,5.91
2023-05-14T04:14:19.051Z,5.91
2023-05-14T04:16:45.733Z,5.84
2023-05-14T04:19:12.572Z,5.96
2023-05-14T04:21:39.444Z,5.98
2023-05-14T04:24:06.660Z,6.13
2023-05-14T04:26:33.390Z,6.24
2023-05-14T04:29:02.949Z,6.34
2023-05-14T04:31:30.440Z,6.49
2023-05-14T04:33:57.116Z,6.57
2023-05-14T04:36:23.748Z,6.67
2023-05-14T04:38:50.766Z,6.77
2023-05-14T04:41:17.472Z,6.87
2023-05-14T04:43:44.080Z,7.01
2023-05-14T04:46:11.667Z,7.05
2023-05-14T04:48:38.469Z,7.09
2023-05-14T04:51:06.917Z,7.12
2023-05-14T04:53:33.902Z,7.15
2023-05-14T04:56:00.501Z,7.24
2023-05-14T04:58:29.210Z,7.27
2023-05-14T05:00:55.852Z,7.30
2023-05-14T05:03:22.581Z,7.32
2023-05-14T05:05:49.311Z,7.38
2023-05-14T05:08:15.965Z,7.42
2023-05-14T05:10:42.625Z,7.48
2023-05-14T05:13:09.214Z,7.55
2023-05-14T05:15:36.132Z,7.54
2023-05-14T05:18:02.791Z,7.54
2023-05-14T05:20:29.434Z,7.58
2023-05-14T05:22:56.203Z,7.64
2023-05-14T05:25:22.805Z,7.65
2023-05-14T05:27:49.473Z,7.73
2023-05-14T05:30:16.215Z,7.74
2023-05-14T05:32:43.039Z,7.81
2023-05-14T05:35:10.058Z,7.89
2023-05-14T05:37:36.748Z,7.93
2023-05-14T05:40:04.470Z,7.96
2023-05-14T05:42:31.099Z,8.01
2023-05-14T05:44:57.714Z,8.05
2023-05-14T05:47:24.392Z,8.18
2023-05-14T05:49:50.992Z,8.29
2023-05-14T05:52:17.722Z,8.32
2023-05-14T05:54:44.391Z,8.37
2023-05-14T05:57:11.253Z,8.42
2023-05-14T05:59:38.043Z,8.51
2023-05-14T06:02:04.967Z,8.63
2023-05-14T06:04:31.645Z,8.80
2023-05-14T06:06:58.377Z,8.87
2023-05-14T06:09:25.100Z,8.96
2023-05-14T06:11:51.702Z,9.07
2023-05-14T06:14:18.577Z,9.12
2023-05-14T06:16:45.398Z,9.25
2023-05-14T06:19:12.128Z,9.38
2023-05-14T06:21:38.951Z,9.56
2023-05-14T06:24:05.848Z,9.66
2023-05-14T06:26:32.575Z,9.72
2023-05-14T06:28:59.381Z,9.80
2023-05-14T06:31:26.435Z,9.89
2023-05-14T06:33:53.097Z,10.04
2023-05-14T06:36:19.679Z,10.26
2023-05-14T06:38:46.330Z,10.39
2023-05-14T06:41:12.970Z,10.40
2023-05-14T06:43:39.645Z,10.51
2023-05-14T06:46:07.127Z,10.59
2023-05-14T06:48:33.747Z,10.69
2023-05-14T06:51:00.418Z,10.71
2023-05-14T06:53:27.052Z,10.82
2023-05-14T06:55:53.687Z,10.97
2023-05-14T06:58:20.393Z,11.08
2023-05-14T07:00:49.016Z,11.21
2023-05-14T07:03:15.710Z,11.31
2023-05-14T07:05:42.378Z,11.41
2023-05-14T07:08:09.110Z,11.57
2023-05-14T07:10:35.840Z,11.71
2023-05-14T07:13:03.436Z,11.88
2023-05-14T07:15:30.035Z,11.93
2023-05-14T07:17:56.824Z,11.94
2023-05-14T07:20:24.302Z,11.97
2023-05-14T07:22:55.338Z,11.99
2023-05-14T07:25:21.992Z,12.10
2023-05-14T07:27:48.657Z,12.13
2023-05-14T07:30:15.315Z,12.28
2023-05-14T07:32:42.341Z,12.23
2023-05-14T07:35:09.704Z,12.22
2023-05-14T07:37:36.456Z,12.24
2023-05-14T07:40:03.595Z,12.24
2023-05-14T07:42:36.452Z,12.32
2023-05-14T07:45:04.686Z,12.41
2023-05-14T07:47:31.540Z,12.51
2023-05-14T07:49:58.321Z,12.56
2023-05-14T07:52:25.319Z,12.57
2023-05-14T07:54:52.529Z,12.49
2023-05-14T07:57:20.086Z,12.51
2023-05-14T07:59:47.820Z,12.57
2023-05-14T08:02:16.068Z,12.78
2023-05-14T08:04:42.917Z,12.79
2023-05-14T08:07:09.693Z,12.84
2023-05-14T08:09:36.615Z,13.00
2023-05-14T08:12:03.585Z,13.01
2023-05-14T08:14:30.235Z,13.01
2023-05-14T08:16:56.951Z,13.12
2023-05-14T08:19:24.459Z,13.19
2023-05-14T08:21:51.499Z,13.29
2023-05-14T08:24:19.054Z,13.32
2023-05-14T08:26:45.725Z,13.29
2023-05-14T08:29:13.983Z,13.45
2023-05-14T08:31:42.318Z,13.50
2023-05-14T08:34:09.036Z,13.65
2023-05-14T08:36:35.653Z,13.67
2023-05-14T08:39:02.404Z,13.75
2023-05-14T08:41:29.164Z,13.89
2023-05-14T08:44:20.522Z,14.06
2023-05-14T08:46:49.908Z,14.15
2023-05-14T08:49:30.461Z,14.27
2023-05-14T08:51:58.158Z,14.35
2023-05-14T08:54:26.453Z,14.46
2023-05-14T08:56:53.394Z,14.61
2023-05-14T08:59:20.984Z,14.68
2023-05-14T09:01:51.807Z,14.70
2023-05-14T09:04:22.477Z,14.84
2023-05-14T09:06:51.020Z,15.00
2023-05-14T09:09:18.866Z,15.18
2023-05-14T09:11:50.773Z,15.32
2023-05-14T09:14:17.981Z,15.37
2023-05-14T09:16:49.921Z,15.41
2023-05-14T09:19:19.399Z,15.51
2023-05-14T09:21:48.686Z,15.63
2023-05-14T09:24:29.750Z,15.58
2023-05-14T09:26:58.374Z,15.65
2023-05-14T09:29:28.482Z,15.73
2023-05-14T09:31:57.374Z,15.78
2023-05-14T09:34:26.250Z,15.87
2023-05-14T09:37:01.357Z,16.03
2023-05-14T09:39:29.221Z,16.05
2023-05-14T09:41:56.422Z,16.23
2023-05-14T09:44:24.117Z,16.29
2023-05-14T09:46:51.551Z,16.41
2023-05-14T09:49:18.548Z,16.48
2023-05-14T09:51:45.155Z,16.60
2023-05-14T09:54:11.996Z,16.67
2023-05-14T09:56:39.672Z,16.70
2023-05-14T09:59:06.504Z,16.82
2023-05-14T10:01:33.656Z,16.90
2023-05-14T10:04:03.827Z,16.92
2023-05-14T10:06:33.455Z,16.90
2023-05-14T10:09:12.705Z,16.85
2023-05-14T10:11:43.839Z,16.95
2023-05-14T10:14:19.056Z,17.21
2023-05-14T10:16:51.491Z,17.48
2023-05-14T10:19:20.966Z,17.69
2023-05-14T10:22:01.808Z,17.75
2023-05-14T10:24:29.031Z,17.94
2023-05-14T10:26:56.697Z,18.03
2023-05-14T10:29:35.833Z,18.15
2023-05-14T10:32:07.839Z,18.24
2023-05-14T10:34:43.982Z,18.37
2023-05-14T10:37:16.493Z,18.56
2023-05-14T10:39:54.128Z,18.37
2023-05-14T10:42:30.008Z,18.62
2023-05-14T10:44:58.918Z,18.69
2023-05-14T10:47:29.503Z,18.68
2023-05-14T10:49:58.311Z,18.67
2023-05-14T10:52:26.377Z,18.33
2023-05-14T10:54:56.135Z,18.33
2023-05-14T10:57:25.049Z,18.20
2023-05-14T10:59:56.768Z,18.13
2023-05-14T11:02:32.043Z,18.07
2023-05-14T11:05:05.145Z,18.05
2023-05-14T11:07:34.626Z,18.06
2023-05-14T11:10:02.495Z,18.06
2023-05-14T11:12:31.661Z,18.06
2023-05-14T11:15:00.827Z,17.92
2023-05-14T11:17:28.941Z,17.83
2023-05-14T11:19:56.296Z,17.90
2023-05-14T11:22:23.383Z,17.83
2023-05-14T11:24:50.572Z,17.86
2023-05-14T11:27:17.993Z,17.81
2023-05-14T11:29:46.371Z,17.99
2023-05-14T11:32:14.310Z,18.08
2023-05-14T11:34:42.166Z,18.12
2023-05-14T11:37:11.373Z,18.19
2023-05-14T11:39:39.143Z,18.33
2023-05-14T11:42:12.005Z,18.28
2023-05-14T11:44:39.099Z,17.94
2023-05-14T11:47:06.596Z,17.95
2023-05-14T11:49:35.627Z,18.01
2023-05-14T11:52:06.659Z,18.13
2023-05-14T11:54:34.582Z,18.16
2023-05-14T11:57:09.576Z,18.13
2023-05-14T11:59:36.488Z,18.02
2023-05-14T12:02:05.074Z,18.06
2023-05-14T12:04:32.296Z,18.13
2023-05-14T12:07:00.422Z,18.11
2023-05-14T12:09:27.190Z,18.23
2023-05-14T12:11:53.890Z,18.24
2023-05-14T12:14:22.436Z,18.36
2023-05-14T12:16:49.714Z,18.31
2023-05-14T12:19:18.815Z,18.20
2023-05-14T12:21:48.192Z,18.22
2023-05-14T12:24:17.965Z,18.22
2023-05-14T12:26:45.811Z,18.40
2023-05-14T12:29:14.166Z,18.52
2023-05-14T12:31:48.689Z,18.43
2023-05-14T12:34:16.354Z,18.58
2023-05-14T12:36:46.173Z,18.51
2023-05-14T12:39:12.837Z,18.57
2023-05-14T12:41:40.014Z,18.55
2023-05-14T12:44:06.755Z,18.62
2023-05-14T12:46:34.406Z,18.48
2023-05-14T12:49:01.180Z,18.60
2023-05-14T12:51:27.925Z,18.66
2023-05-14T12:53:54.999Z,18.68
2023-05-14T12:56:27.725Z,18.64
2023-05-14T12:58:56.427Z,18.74
2023-05-14T13:01:23.653Z,18.89
2023-05-14T13:03:51.470Z,18.94
2023-05-14T13:06:18.478Z,18.72
2023-05-14T13:08:45.275Z,18.77
2023-05-14T13:11:11.982Z,18.91
2023-05-14T13:13:38.627Z,19.05
2023-05-14T13:16:05.681Z,18.87
2023-05-14T13:18:32.510Z,18.91
2023-05-14T13:20:59.194Z,18.92
2023-05-14T13:23:25.843Z,18.93
2023-05-14T13:25:52.568Z,18.72
2023-05-14T13:28:19.219Z,18.62
2023-05-14T13:31:07.840Z,18.77
2023-05-14T13:33:42.140Z,19.00
2023-05-14T13:36:10.440Z,19.14
2023-05-14T13:38:37.153Z,19.27
2023-05-14T13:41:04.508Z,19.46
2023-05-14T13:43:35.402Z,19.56
2023-05-14T13:46:03.826Z,19.62
2023-05-14T13:48:31.120Z,19.70
2023-05-14T13:50:58.066Z,19.84
2023-05-14T13:53:27.355Z,19.66
2023-05-14T13:55:58.562Z,19.70
2023-05-14T13:58:25.962Z,19.78
2023-05-14T14:00:53.289Z,19.92
2023-05-14T14:03:20.041Z,19.90
2023-05-14T14:05:46.650Z,19.75
2023-05-14T14:10:48.589Z,20.03
2023-05-14T14:13:23.366Z,19.96
2023-05-14T14:15:50.333Z,19.88
2023-05-14T14:18:17.091Z,19.89
2023-05-14T14:20:43.966Z,19.87
2023-05-14T14:23:10.696Z,19.82
2023-05-14T14:25:37.342Z,19.86
2023-05-14T14:28:04.004Z,19.93
2023-05-14T14:30:30.710Z,20.00
2023-05-14T14:32:57.695Z,19.84
2023-05-14T14:35:24.690Z,19.89
2023-05-14T14:37:53.714Z,19.90
2023-05-14T14:40:20.456Z,19.97
2023-05-14T14:42:47.173Z,20.11
2023-05-14T14:45:16.650Z,20.04
2023-05-14T14:47:45.975Z,19.98
2023-05-14T14:50:15.724Z,20.05
2023-05-14T14:52:47.947Z,20.01
2023-05-14T14:55:15.309Z,20.03
2023-05-14T14:57:47.536Z,20.05
2023-05-14T15:00:15.268Z,20.07
2023-05-14T15:02:43.180Z,19.84
2023-05-14T15:05:10.005Z,19.86
2023-05-14T15:07:36.653Z,19.86
2023-05-14T15:10:03.619Z,19.84
2023-05-14T15:12:32.863Z,19.73
2023-05-14T15:14:59.469Z,19.81
2023-05-14T15:17:26.650Z,19.73
2023-05-14T15:19:53.358Z,19.55
2023-05-14T15:22:20.063Z,19.62
2023-05-14T15:24:50.145Z,19.63
2023-05-14T15:27:16.848Z,19.47
2023-05-14T15:29:43.453Z,19.53
2023-05-14T15:32:10.087Z,19.59
2023-05-14T15:34:36.793Z,19.63
2023-05-14T15:37:03.465Z,19.46
2023-05-14T15:39:31.484Z,19.45
2023-05-14T15:41:58.349Z,19.22
2023-05-14T15:44:25.019Z,19.22
2023-05-14T15:46:51.956Z,19.17
2023-05-14T15:49:18.688Z,19.10
2023-05-14T15:51:45.476Z,19.19
2023-05-14T15:54:12.175Z,19.08
2023-05-14T15:56:38.879Z,19.13
2023-05-14T15:59:05.580Z,19.16
2023-05-14T16:01:32.252Z,19.27
2023-05-14T16:03:59.001Z,19.18
2023-05-14T16:06:26.032Z,19.08
2023-05-14T16:08:52.648Z,19.09
2023-05-14T16:11:19.300Z,19.01
2023-05-14T16:13:45.985Z,19.07
2023-05-14T16:16:13.269Z,19.01
2023-05-14T16:18:43.536Z,18.86
2023-05-14T16:21:10.229Z,18.84
2023-05-14T16:23:36.923Z,18.90
2023-05-14T16:26:03.550Z,18.82
2023-05-14T16:28:30.514Z,18.75
2023-05-14T16:30:57.150Z,18.80
2023-05-14T16:33:23.892Z,18.79
2023-05-14T16:35:51.366Z,18.81
2023-05-14T16:38:19.301Z,18.84
2023-05-14T16:40:45.938Z,18.87
2023-05-14T16:43:12.803Z,18.92
2023-05-14T16:45:40.367Z,18.86
2023-05-14T16:48:07.570Z,18.85
2023-05-14T16:50:34.306Z,18.74
2023-05-14T16:53:00.969Z,18.79
2023-05-14T16:55:27.615Z,18.71
2023-05-14T16:57:54.306Z,18.64
2023-05-14T17:00:21.133Z,18.58
2023-05-14T17:02:49.792Z,18.51
2023-05-14T17:05:16.678Z,18.44
2023-05-14T17:07:43.268Z,18.32
2023-05-14T17:10:10.295Z,18.20
2023-05-14T17:12:41.798Z,18.33
2023-05-14T17:15:10.448Z,18.37
2023-05-14T17:17:40.548Z,18.40
2023-05-14T17:20:08.304Z,18.34
2023-05-14T17:22:36.945Z,18.40
2023-05-14T17:25:06.030Z,18.55
2023-05-14T17:27:33.421Z,18.50
2023-05-14T17:30:01.447Z,18.46
2023-05-14T17:32:29.537Z,18.58
2023-05-14T17:34:57.892Z,18.64
2023-05-14T17:37:25.737Z,18.59
2023-05-14T17:39:54.447Z,18.43
2023-05-14T17:42:21.333Z,18.29
2023-05-14T17:44:49.563Z,18.18
2023-05-14T17:47:20.846Z,18.20
2023-05-14T17:49:50.655Z,18.08
2023-05-14T17:52:21.112Z,17.99
2023-05-14T17:54:47.771Z,17.88
2023-05-14T17:57:15.290Z,17.77
2023-05-14T17:59:46.722Z,17.76
2023-05-14T18:02:14.040Z,17.83
2023-05-14T18:04:40.730Z,17.99
2023-05-14T18:07:08.867Z,18.41
2023-05-14T18:09:36.956Z,18.89
2023-05-14T18:12:08.365Z,19.16
2023-05-14T18:14:35.396Z,18.81
2023-05-14T18:17:03.499Z,18.07
2023-05-14T18:19:32.475Z,18.21
2023-05-14T18:22:00.488Z,17.73
2023-05-14T18:24:27.557Z,17.49
2023-05-14T18:26:55.022Z,17.29
2023-05-14T18:29:22.511Z,17.25
2023-05-14T18:31:49.963Z,16.92
2023-05-14T18:34:18.256Z,16.93
2023-05-14T18:36:44.978Z,16.90
2023-05-14T18:39:11.879Z,16.65
2023-05-14T18:41:39.644Z,16.79
2023-05-14T18:44:06.849Z,16.29
2023-05-14T18:46:35.020Z,16.28
2023-05-14T18:49:02.912Z,16.19
2023-05-14T18:51:30.377Z,16.07
2023-05-14T18:53:59.225Z,16.07
2023-05-14T18:56:27.473Z,15.92
2023-05-14T18:58:54.364Z,15.85
2023-05-14T19:01:25.592Z,15.75
2023-05-14T19:03:54.666Z,15.54
2023-05-14T19:06:21.708Z,15.49
2023-05-14T19:08:48.395Z,15.48
2023-05-14T19:11:18.085Z,15.32
2023-05-14T19:13:55.594Z,15.41
2023-05-14T19:16:30.020Z,15.58
2023-05-14T19:18:56.858Z,15.42
2023-05-14T19:21:27.113Z,15.26
2023-05-14T19:23:57.108Z,15.15
2023-05-14T19:26:26.178Z,14.96
2023-05-14T19:28:58.039Z,14.91
2023-05-14T19:31:25.920Z,14.86
2023-05-14T19:33:55.340Z,14.85
2023-05-14T19:36:22.198Z,14.79
2023-05-14T19:38:49.258Z,14.83
2023-05-14T19:41:16.271Z,14.77
2023-05-14T19:43:43.068Z,14.80
2023-05-14T19:46:09.821Z,14.65
2023-05-14T19:48:36.523Z,14.63
2023-05-14T19:51:03.589Z,14.70
2023-05-14T19:53:31.432Z,14.58
2023-05-14T19:56:03.667Z,14.50
2023-05-14T20:01:12.096Z,14.51
2023-05-14T20:03:39.159Z,14.38
2023-05-14T20:06:07.128Z,14.26
2023-05-14T20:08:36.700Z,14.25
2023-05-14T20:11:04.214Z,14.24
2023-05-14T20:13:32.065Z,14.16
2023-05-14T20:15:59.217Z,14.17
2023-05-14T20:18:26.019Z,14.21
2023-05-14T20:20:52.877Z,14.19
2023-05-14T20:23:20.709Z,14.06
2023-05-14T20:25:47.865Z,14.08
2023-05-14T20:28:14.598Z,14.14
2023-05-14T20:30:41.486Z,14.14
2023-05-14T20:33:08.344Z,14.19
2023-05-14T20:35:35.221Z,14.07
2023-05-14T20:38:05.545Z,14.20
2023-05-14T20:40:32.837Z,14.00
2023-05-14T20:42:59.579Z,13.91
2023-05-14T20:45:26.596Z,13.80
2023-05-14T20:47:53.677Z,13.73
2023-05-14T20:50:21.565Z,13.58
2023-05-14T20:52:48.553Z,13.47
2023-05-14T20:55:15.446Z,13.56
2023-05-14T20:57:43.546Z,13.50
2023-05-14T21:00:11.376Z,13.46
2023-05-14T21:02:38.325Z,13.51
2023-05-14T21:05:05.588Z,13.34
2023-05-14T21:07:32.301Z,13.26
2023-05-14T21:09:59.207Z,13.18
2023-05-14T21:12:25.838Z,13.15
2023-05-14T21:14:52.450Z,13.14
2023-05-14T21:17:19.159Z,13.08
2023-05-14T21:19:46.000Z,13.06
2023-05-14T21:22:13.471Z,12.94
2023-05-14T21:24:40.100Z,12.90
2023-05-14T21:27:06.703Z,12.91
2023-05-14T21:29:33.389Z,12.90
2023-05-14T21:32:00.104Z,12.77
2023-05-14T21:34:26.882Z,12.86
2023-05-14T21:36:53.578Z,12.80
2023-05-14T21:39:20.236Z,12.76
2023-05-14T21:41:46.985Z,12.75
2023-05-14T21:44:13.728Z,12.81
2023-05-14T21:46:40.575Z,12.81
2023-05-14T21:49:07.188Z,12.77
2023-05-14T21:51:33.824Z,12.60
2023-05-14T21:54:00.470Z,12.62
2023-05-14T21:56:27.327Z,12.59
2023-05-14T21:58:56.124Z,12.47
2023-05-14T22:01:23.508Z,12.48
2023-05-14T22:03:50.314Z,12.36
2023-05-14T22:06:16.944Z,12.31
2023-05-14T22:08:43.543Z,12.32
2023-05-14T22:11:10.247Z,12.30
2023-05-14T22:13:40.911Z,12.40
2023-05-14T22:16:13.787Z,11.88
2023-05-14T22:18:41.131Z,12.00
2023-05-14T22:21:07.793Z,11.86
2023-05-14T22:23:34.668Z,11.71
2023-05-14T22:26:01.325Z,11.64
2023-05-14T22:28:27.992Z,11.78
2023-05-14T22:30:55.259Z,11.62
2023-05-14T22:33:22.501Z,11.40
2023-05-14T22:35:49.218Z,11.39
2023-05-14T22:38:15.954Z,11.35
2023-05-14T22:40:42.596Z,11.33
2023-05-14T22:43:09.279Z,11.15
2023-05-14T22:45:36.210Z,11.11
2023-05-14T22:48:02.920Z,11.02
2023-05-14T22:50:29.609Z,11.14
2023-05-14T22:52:56.241Z,11.15
2023-05-14T22:55:23.088Z,11.09
2023-05-14T22:57:49.891Z,11.12
2023-05-14T23:00:16.896Z,11.08
2023-05-14T23:02:43.657Z,11.10
2023-05-14T23:05:10.591Z,11.14
2023-05-14T23:07:37.473Z,10.98
2023-05-14T23:10:04.342Z,10.95
2023-05-14T23:12:30.969Z,10.93
2023-05-14T23:14:59.138Z,10.90
2023-05-14T23:17:26.029Z,10.90
2023-05-14T23:19:52.877Z,10.87
2023-05-14T23:22:19.591Z,10.95
2023-05-14T23:24:46.186Z,10.88
2023-05-14T23:27:13.028Z,10.82
2023-05-14T23:29:39.727Z,10.79
2023-05-14T23:32:07.195Z,10.90
2023-05-14T23:34:34.690Z,10.73
2023-05-14T23:37:01.516Z,10.72
2023-05-14T23:39:28.227Z,10.55
2023-05-14T23:41:54.815Z,10.66
2023-05-14T23:44:21.734Z,10.60
2023-05-14T23:46:48.579Z,10.56
2023-05-14T23:49:15.371Z,10.48
2023-05-14T23:51:42.189Z,10.35
2023-05-14T23:54:08.810Z,10.43
2023-05-14T23:56:36.078Z,10.36
2023-05-14T23:59:03.689Z,10.39
